createdAt,value
2017-08-14T00:00:43.066Z,1016.72
2017-08-14T00:01:43.044Z,1016.72
2017-08-14T00:02:43.024Z,1016.71
2017-08-14T00:03:43.003Z,1016.73
2017-08-14T00:04:42.980Z,1016.7
2017-08-14T00:05:42.959Z,1016.71
2017-08-14T00:06:42.937Z,1016.7
2017-08-14T00:07:42.916Z,1016.7
2017-08-14T00:08:42.897Z,1016.71
2017-08-14T00:09:42.875Z,1016.71
2017-08-14T00:10:42.852Z,1016.68
2017-08-14T00:11:42.832Z,1016.68
2017-08-14T00:12:42.812Z,1016.69
2017-08-14T00:13:42.789Z,1016.73
2017-08-14T00:14:42.767Z,1016.67
2017-08-14T00:15:42.744Z,1016.68
2017-08-14T00:16:42.723Z,1016.68
2017-08-14T00:17:42.705Z,1016.66
2017-08-14T00:18:42.679Z,1016.67
2017-08-14T00:19:42.659Z,1016.7
2017-08-14T00:20:42.637Z,1016.76
2017-08-14T00:21:42.617Z,1016.7
2017-08-14T00:22:42.596Z,1016.72
2017-08-14T00:23:42.573Z,1016.71
2017-08-14T00:24:42.557Z,1016.69
2017-08-14T00:25:42.530Z,1016.66
2017-08-14T00:26:42.507Z,1016.71
2017-08-14T00:27:42.488Z,1016.69
2017-08-14T00:28:42.469Z,1016.7
2017-08-14T00:29:42.447Z,1016.7
2017-08-14T00:30:42.422Z,1016.71
2017-08-14T00:31:42.401Z,1016.69
2017-08-14T00:32:42.379Z,1016.69
2017-08-14T00:33:42.363Z,1016.67
2017-08-14T00:34:42.338Z,1016.66
2017-08-14T00:35:42.318Z,1016.66
2017-08-14T00:36:42.298Z,1016.66
2017-08-14T00:37:42.276Z,1016.67
2017-08-14T00:38:42.256Z,1016.69
2017-08-14T00:39:42.230Z,1016.66
2017-08-14T00:40:42.208Z,1016.67
2017-08-14T00:41:42.183Z,1016.64
2017-08-14T00:42:42.165Z,1016.72
2017-08-14T00:43:42.142Z,1016.65
2017-08-14T00:44:42.125Z,1016.65
2017-08-14T00:45:42.100Z,1016.67
2017-08-14T00:46:42.078Z,1016.62
2017-08-14T00:47:42.055Z,1016.62
2017-08-14T00:48:42.035Z,1016.69
2017-08-14T00:49:42.014Z,1016.65
2017-08-14T00:50:41.989Z,1016.7
2017-08-14T00:51:41.975Z,1016.68
2017-08-14T00:52:41.951Z,1016.65
2017-08-14T00:53:41.926Z,1016.65
2017-08-14T00:54:41.907Z,1016.65
2017-08-14T00:55:41.885Z,1016.64
2017-08-14T00:57:41.842Z,1016.68
2017-08-14T00:58:41.819Z,1016.65
2017-08-14T00:59:41.796Z,1016.67
2017-08-14T01:00:41.775Z,1016.68
2017-08-14T01:01:41.755Z,1016.67
2017-08-14T01:02:41.734Z,1016.66
2017-08-14T01:03:41.710Z,1016.67
2017-08-14T01:04:41.688Z,1016.66
2017-08-14T01:05:41.719Z,1016.64
2017-08-14T01:06:41.646Z,1016.64
2017-08-14T01:07:41.625Z,1016.64
2017-08-14T01:08:41.603Z,1016.69
2017-08-14T01:09:41.584Z,1016.63
2017-08-14T01:10:41.564Z,1016.66
2017-08-14T01:11:41.538Z,1016.61
2017-08-14T01:12:41.768Z,1016.59
2017-08-14T01:13:41.495Z,1016.56
2017-08-14T01:14:41.473Z,1016.63
2017-08-14T01:15:41.456Z,1016.63
2017-08-14T01:16:41.432Z,1016.63
2017-08-14T01:17:41.405Z,1016.6
2017-08-14T01:18:41.392Z,1016.62
2017-08-14T01:19:41.366Z,1016.57
2017-08-14T01:20:41.341Z,1016.58
2017-08-14T01:21:41.319Z,1016.6
2017-08-14T01:22:41.299Z,1016.54
2017-08-14T01:23:41.278Z,1016.59
2017-08-14T01:24:41.256Z,1016.56
2017-08-14T01:25:41.235Z,1016.57
2017-08-14T01:26:41.210Z,1016.53
2017-08-14T01:27:41.191Z,1016.58
2017-08-14T01:28:41.169Z,1016.58
2017-08-14T01:29:41.148Z,1016.52
2017-08-14T01:30:41.124Z,1016.54
2017-08-14T01:31:41.154Z,1016.58
2017-08-14T01:32:41.082Z,1016.54
2017-08-14T01:33:41.065Z,1016.55
2017-08-14T01:34:41.037Z,1016.54
2017-08-14T01:35:41.016Z,1016.53
2017-08-14T01:36:40.995Z,1016.55
2017-08-14T01:37:40.975Z,1016.55
2017-08-14T01:38:40.957Z,1016.56
2017-08-14T01:39:40.929Z,1016.55
2017-08-14T01:40:40.915Z,1016.58
2017-08-14T01:41:40.888Z,1016.55
2017-08-14T01:42:40.865Z,1016.53
2017-08-14T01:43:40.843Z,1016.53
2017-08-14T01:44:40.823Z,1016.5
2017-08-14T01:45:40.849Z,1016.49
2017-08-14T01:46:40.779Z,1016.48
2017-08-14T01:47:40.756Z,1016.49
2017-08-14T01:48:40.731Z,1016.52
2017-08-14T01:49:40.712Z,1016.49
2017-08-14T01:50:40.690Z,1016.48
2017-08-14T01:51:40.669Z,1016.47
2017-08-14T01:52:40.648Z,1016.55
2017-08-14T01:53:40.625Z,1016.48
2017-08-14T01:54:40.601Z,1016.48
2017-08-14T01:55:40.582Z,1016.5
2017-08-14T01:56:40.564Z,1016.48
2017-08-14T01:57:40.538Z,1016.48
2017-08-14T01:58:40.518Z,1016.47
2017-08-14T01:59:40.498Z,1016.46
2017-08-14T02:00:40.474Z,1016.45
2017-08-14T02:01:40.451Z,1016.45
2017-08-14T02:02:40.428Z,1016.4
2017-08-14T02:03:40.408Z,1016.42
2017-08-14T02:04:40.391Z,1016.39
2017-08-14T02:05:40.360Z,1016.4
2017-08-14T02:06:40.393Z,1016.39
2017-08-14T02:07:40.320Z,1016.39
2017-08-14T02:08:40.301Z,1016.39
2017-08-14T02:09:40.280Z,1016.39
2017-08-14T02:10:40.255Z,1016.39
2017-08-14T02:11:40.233Z,1016.33
2017-08-14T02:12:40.207Z,1016.33
2017-08-14T02:13:40.187Z,1016.33
2017-08-14T02:14:40.168Z,1016.35
2017-08-14T02:15:40.145Z,1016.34
2017-08-14T02:16:40.123Z,1016.31
2017-08-14T02:17:40.104Z,1016.3
2017-08-14T02:18:40.079Z,1016.25
2017-08-14T02:19:40.058Z,1016.28
2017-08-14T02:20:40.037Z,1016.22
2017-08-14T02:21:40.014Z,1016.24
2017-08-14T02:22:39.994Z,1016.22
2017-08-14T02:23:39.967Z,1016.21
2017-08-14T02:24:39.950Z,1016.2
2017-08-14T02:25:39.946Z,1016.21
2017-08-14T02:26:39.905Z,1016.16
2017-08-14T02:27:39.882Z,1016.24
2017-08-14T02:28:39.861Z,1016.19
2017-08-14T02:29:39.845Z,1016.17
2017-08-14T02:30:39.823Z,1016.13
2017-08-14T02:31:39.795Z,1016.1
2017-08-14T02:32:39.777Z,1016.11
2017-08-14T02:33:39.751Z,1016.1
2017-08-14T02:34:39.733Z,1016.12
2017-08-14T02:35:39.708Z,1016.07
2017-08-14T02:36:39.688Z,1016.04
2017-08-14T02:37:39.667Z,1016.08
2017-08-14T02:38:39.643Z,1016.08
2017-08-14T02:39:39.623Z,1016.06
2017-08-14T02:40:39.602Z,1016.06
2017-08-14T02:41:39.579Z,1016.07
2017-08-14T02:42:39.557Z,1016.06
2017-08-14T02:43:39.536Z,1016.07
2017-08-14T02:44:39.515Z,1016.06
2017-08-14T02:45:39.490Z,1016.07
2017-08-14T02:46:39.476Z,1016.07
2017-08-14T02:47:39.452Z,1016.06
2017-08-14T02:48:39.428Z,1016.07
2017-08-14T02:49:39.405Z,1016.06
2017-08-14T02:50:39.384Z,1016.05
2017-08-14T02:51:39.361Z,1016.01
2017-08-14T02:52:39.339Z,1016.01
2017-08-14T02:53:39.318Z,1016.01
2017-08-14T02:54:39.298Z,1016.04
2017-08-14T02:55:39.273Z,1016.06
2017-08-14T02:56:39.251Z,1016.1
2017-08-14T02:57:39.239Z,1016.09
2017-08-14T02:58:39.211Z,1016.07
2017-08-14T02:59:39.187Z,1016.08
2017-08-14T03:00:39.163Z,1016.07
2017-08-14T03:01:39.144Z,1016.08
2017-08-14T03:02:39.127Z,1016.02
2017-08-14T03:03:39.098Z,1016.01
2017-08-14T03:04:39.078Z,1016.02
2017-08-14T03:05:39.056Z,1016.04
2017-08-14T03:06:39.036Z,1016.03
2017-08-14T03:07:39.011Z,1016.04
2017-08-14T03:08:38.990Z,1016.01
2017-08-14T03:09:38.969Z,1016.03
2017-08-14T03:10:38.993Z,1016.02
2017-08-14T03:11:38.924Z,1015.99
2017-08-14T03:12:38.902Z,1016.05
2017-08-14T03:13:38.882Z,1016.03
2017-08-14T03:14:38.858Z,1016.02
2017-08-14T03:15:38.837Z,1016.05
2017-08-14T03:16:38.814Z,1016.04
2017-08-14T03:17:38.792Z,1016.04
2017-08-14T03:18:38.772Z,1016.03
2017-08-14T03:19:38.749Z,1016.06
2017-08-14T03:20:38.735Z,1016.01
2017-08-14T03:21:38.706Z,1016.04
2017-08-14T03:22:38.683Z,1016.04
2017-08-14T03:23:38.711Z,1016.05
2017-08-14T03:24:38.639Z,1016.02
2017-08-14T03:25:38.616Z,1016.01
2017-08-14T03:26:38.596Z,1016.01
2017-08-14T03:27:38.574Z,1016.02
2017-08-14T03:28:38.553Z,1016
2017-08-14T03:29:38.533Z,1016
2017-08-14T03:30:38.508Z,1016.01
2017-08-14T03:31:38.486Z,1016
2017-08-14T03:32:38.471Z,1015.98
2017-08-14T03:33:38.443Z,1016.01
2017-08-14T03:34:38.419Z,1015.97
2017-08-14T03:35:38.399Z,1015.94
2017-08-14T03:36:38.375Z,1015.95
2017-08-14T03:37:38.355Z,1015.95
2017-08-14T03:38:38.335Z,1015.94
2017-08-14T03:39:38.309Z,1015.96
2017-08-14T03:40:38.290Z,1015.91
2017-08-14T03:41:38.265Z,1015.9
2017-08-14T03:42:38.300Z,1015.87
2017-08-14T03:43:38.223Z,1015.92
2017-08-14T03:44:38.198Z,1015.9
2017-08-14T03:45:38.184Z,1015.89
2017-08-14T03:46:38.158Z,1015.9
2017-08-14T03:47:38.134Z,1015.93
2017-08-14T03:48:38.113Z,1015.89
2017-08-14T03:49:38.092Z,1015.89
2017-08-14T03:50:38.068Z,1015.92
2017-08-14T03:51:38.047Z,1015.92
2017-08-14T03:52:38.024Z,1015.93
2017-08-14T03:53:38.000Z,1015.95
2017-08-14T03:54:37.984Z,1015.9
2017-08-14T03:55:37.959Z,1015.87
2017-08-14T03:56:37.939Z,1015.87
2017-08-14T03:57:37.918Z,1015.93
2017-08-14T03:58:37.895Z,1015.91
2017-08-14T03:59:37.870Z,1015.85
2017-08-14T04:00:37.856Z,1015.94
2017-08-14T04:01:37.829Z,1015.92
2017-08-14T04:02:37.809Z,1015.94
2017-08-14T04:03:37.782Z,1015.93
2017-08-14T04:04:37.769Z,1015.91
2017-08-14T04:05:37.741Z,1015.89
2017-08-14T04:06:37.719Z,1015.97
2017-08-14T04:07:37.695Z,1015.94
2017-08-14T04:08:37.673Z,1015.92
2017-08-14T04:09:37.652Z,1015.92
2017-08-14T04:10:37.630Z,1015.93
2017-08-14T04:11:37.609Z,1015.95
2017-08-14T04:12:37.586Z,1015.91
2017-08-14T04:13:37.566Z,1015.94
2017-08-14T04:14:37.541Z,1015.92
2017-08-14T04:15:37.522Z,1015.93
2017-08-14T04:16:37.497Z,1015.95
2017-08-14T04:17:37.482Z,1015.88
2017-08-14T04:18:37.454Z,1015.91
2017-08-14T04:19:37.433Z,1015.88
2017-08-14T04:20:37.410Z,1015.86
2017-08-14T04:21:37.391Z,1015.88
2017-08-14T04:22:37.365Z,1015.87
2017-08-14T04:23:37.345Z,1015.86
2017-08-14T04:24:37.321Z,1015.88
2017-08-14T04:25:37.300Z,1015.9
2017-08-14T04:26:37.279Z,1015.89
2017-08-14T04:27:37.256Z,1015.9
2017-08-14T04:28:37.237Z,1015.93
2017-08-14T04:29:37.211Z,1015.89
2017-08-14T04:30:37.190Z,1015.88
2017-08-14T04:31:37.168Z,1015.93
2017-08-14T04:32:37.143Z,1015.98
2017-08-14T04:33:37.175Z,1015.94
2017-08-14T04:34:37.102Z,1015.96
2017-08-14T04:35:37.082Z,1015.91
2017-08-14T04:36:37.066Z,1015.94
2017-08-14T04:37:37.035Z,1015.97
2017-08-14T04:38:37.016Z,1015.94
2017-08-14T04:39:37.043Z,1015.99
2017-08-14T04:40:36.970Z,1015.94
2017-08-14T04:41:36.949Z,1015.94
2017-08-14T04:42:36.975Z,1015.94
2017-08-14T04:43:36.908Z,1015.96
2017-08-14T04:44:36.882Z,1015.97
2017-08-14T04:45:36.866Z,1015.98
2017-08-14T04:46:36.838Z,1015.99
2017-08-14T04:47:36.823Z,1015.98
2017-08-14T04:48:36.798Z,1016
2017-08-14T04:49:36.773Z,1016
2017-08-14T04:50:36.750Z,1015.99
2017-08-14T04:51:36.733Z,1016
2017-08-14T04:52:36.709Z,1015.99
2017-08-14T04:53:36.685Z,1015.97
2017-08-14T04:54:36.668Z,1015.99
2017-08-14T04:55:36.646Z,1016.01
2017-08-14T04:56:36.621Z,1015.99
2017-08-14T04:57:36.602Z,1015.99
2017-08-14T04:58:36.580Z,1016
2017-08-14T04:59:36.565Z,1015.97
2017-08-14T05:00:36.539Z,1016.02
2017-08-14T05:01:36.516Z,1016.03
2017-08-14T05:02:36.495Z,1015.98
2017-08-14T05:03:36.473Z,1015.94
2017-08-14T05:04:36.450Z,1016.03
2017-08-14T05:05:36.431Z,1015.97
2017-08-14T05:06:36.409Z,1015.94
2017-08-14T05:07:36.397Z,1015.97
2017-08-14T05:08:36.367Z,1015.95
2017-08-14T05:09:36.346Z,1015.98
2017-08-14T05:10:36.331Z,1015.98
2017-08-14T05:11:36.304Z,1016
2017-08-14T05:12:36.283Z,1015.97
2017-08-14T05:13:36.263Z,1015.98
2017-08-14T05:14:36.242Z,1016.01
2017-08-14T05:15:36.221Z,1016
2017-08-14T05:16:36.200Z,1015.95
2017-08-14T05:17:36.183Z,1015.98
2017-08-14T05:18:36.163Z,1016
2017-08-14T05:19:36.138Z,1015.97
2017-08-14T05:20:36.121Z,1016
2017-08-14T05:21:36.098Z,1015.96
2017-08-14T05:22:36.079Z,1015.96
2017-08-14T05:23:36.055Z,1015.97
2017-08-14T05:24:36.040Z,1015.98
2017-08-14T05:25:36.016Z,1015.99
2017-08-14T05:26:35.994Z,1015.96
2017-08-14T05:27:35.976Z,1015.95
2017-08-14T05:28:35.956Z,1015.97
2017-08-14T05:29:35.935Z,1015.97
2017-08-14T05:30:35.913Z,1015.99
2017-08-14T05:31:35.893Z,1015.94
2017-08-14T05:32:35.925Z,1015.96
2017-08-14T05:33:35.855Z,1015.91
2017-08-14T05:34:35.835Z,1016.01
2017-08-14T05:35:35.817Z,1015.97
2017-08-14T05:36:35.796Z,1016
2017-08-14T05:37:35.769Z,1015.99
2017-08-14T05:38:35.753Z,1015.99
2017-08-14T05:39:35.733Z,1015.94
2017-08-14T05:40:35.714Z,1015.93
2017-08-14T05:41:35.691Z,1015.9
2017-08-14T05:42:35.674Z,1015.92
2017-08-14T05:43:35.656Z,1015.95
2017-08-14T05:44:35.631Z,1015.99
2017-08-14T05:45:35.664Z,1015.97
2017-08-14T05:46:35.597Z,1015.98
2017-08-14T05:47:35.578Z,1015.95
2017-08-14T05:48:35.555Z,1015.94
2017-08-14T05:49:35.538Z,1015.93
2017-08-14T05:50:35.518Z,1015.91
2017-08-14T05:51:35.497Z,1015.93
2017-08-14T05:52:35.476Z,1015.89
2017-08-14T05:53:35.462Z,1015.97
2017-08-14T05:54:35.440Z,1015.98
2017-08-14T05:55:35.419Z,1015.98
2017-08-14T05:56:35.404Z,1016.01
2017-08-14T05:57:35.387Z,1015.97
2017-08-14T05:58:35.365Z,1016.02
2017-08-14T05:59:35.347Z,1016.01
2017-08-14T06:00:35.327Z,1015.97
2017-08-14T06:01:35.307Z,1015.96
2017-08-14T06:02:35.290Z,1016
2017-08-14T06:03:35.268Z,1015.98
2017-08-14T06:04:35.256Z,1016
2017-08-14T06:05:35.233Z,1016.04
2017-08-14T06:06:35.213Z,1016.03
2017-08-14T06:07:35.198Z,1016.06
2017-08-14T06:08:35.175Z,1015.95
2017-08-14T06:09:35.157Z,1015.98
2017-08-14T06:10:35.137Z,1016.03
2017-08-14T06:11:35.121Z,1016.06
2017-08-14T06:12:35.100Z,1016.01
2017-08-14T06:13:35.079Z,1016.06
2017-08-14T06:14:35.061Z,1016.05
2017-08-14T06:15:35.046Z,1015.99
2017-08-14T06:16:35.027Z,1016.03
2017-08-14T06:17:35.006Z,1016.04
2017-08-14T06:18:34.988Z,1016.07
2017-08-14T06:19:34.969Z,1015.99
2017-08-14T06:20:34.954Z,1016.1
2017-08-14T06:21:34.938Z,1016.05
2017-08-14T06:22:34.965Z,1016.02
2017-08-14T06:23:34.896Z,1016.06
2017-08-14T06:24:34.879Z,1016.07
2017-08-14T06:25:34.863Z,1016.09
2017-08-14T06:26:34.845Z,1016.06
2017-08-14T06:27:34.825Z,1016.06
2017-08-14T06:28:34.807Z,1015.99
2017-08-14T06:29:34.792Z,1016.01
2017-08-14T06:30:34.772Z,1015.99
2017-08-14T06:31:34.767Z,1016.01
2017-08-14T06:32:34.741Z,1015.98
2017-08-14T06:33:34.717Z,1016.05
2017-08-14T06:34:34.703Z,1016.03
2017-08-14T06:35:34.686Z,1016.1
2017-08-14T06:36:34.668Z,1016.09
2017-08-14T06:37:34.655Z,1016.09
2017-08-14T06:38:34.638Z,1016.06
2017-08-14T06:39:34.619Z,1016.11
2017-08-14T06:40:34.604Z,1016.06
2017-08-14T06:41:34.581Z,1016.07
2017-08-14T06:42:34.572Z,1016.11
2017-08-14T06:43:34.552Z,1016.08
2017-08-14T06:44:34.535Z,1016.07
2017-08-14T06:45:34.520Z,1016.11
2017-08-14T06:46:34.502Z,1016.09
2017-08-14T06:47:34.485Z,1016.08
2017-08-14T06:48:34.474Z,1016.04
2017-08-14T06:49:34.455Z,1016.02
2017-08-14T06:50:34.438Z,1016.04
2017-08-14T06:51:34.422Z,1016.04
2017-08-14T06:52:34.407Z,1016.04
2017-08-14T06:53:34.392Z,1016.04
2017-08-14T06:54:34.373Z,1016
2017-08-14T06:55:34.360Z,1015.98
2017-08-14T06:56:34.343Z,1016.01
2017-08-14T06:57:34.327Z,1016.04
2017-08-14T06:58:34.314Z,1016.03
2017-08-14T06:59:34.297Z,1016
2017-08-14T07:00:34.287Z,1016.01
2017-08-14T07:01:34.266Z,1016.03
2017-08-14T07:02:34.259Z,1016.07
2017-08-14T07:03:34.240Z,1016.07
2017-08-14T07:04:34.221Z,1016.04
2017-08-14T07:05:34.205Z,1016.06
2017-08-14T07:06:34.189Z,1016
2017-08-14T07:07:34.225Z,1016
2017-08-14T07:08:34.159Z,1016.11
2017-08-14T07:09:34.145Z,1016.07
2017-08-14T07:10:34.131Z,1016.11
2017-08-14T07:11:34.116Z,1016.06
2017-08-14T07:12:34.101Z,1016.08
2017-08-14T07:13:34.088Z,1016.08
2017-08-14T07:14:34.070Z,1016.09
2017-08-14T07:15:34.058Z,1016.04
2017-08-14T07:16:34.038Z,1016.01
2017-08-14T07:17:34.027Z,1016.02
2017-08-14T07:18:34.015Z,1016.07
2017-08-14T07:19:34.045Z,1015.97
2017-08-14T07:20:33.984Z,1015.98
2017-08-14T07:21:33.966Z,1016
2017-08-14T07:22:33.951Z,1016.05
2017-08-14T07:23:33.936Z,1015.97
2017-08-14T07:24:33.924Z,1015.99
2017-08-14T07:25:33.909Z,1015.99
2017-08-14T07:26:33.947Z,1015.96
2017-08-14T07:27:33.886Z,1015.98
2017-08-14T07:28:33.866Z,1015.93
2017-08-14T07:29:33.852Z,1015.96
2017-08-14T07:30:33.887Z,1015.95
2017-08-14T07:31:33.826Z,1015.94
2017-08-14T07:32:33.814Z,1015.98
2017-08-14T07:33:33.803Z,1015.92
2017-08-14T07:34:33.833Z,1015.92
2017-08-14T07:35:33.769Z,1015.94
2017-08-14T07:36:33.759Z,1015.93
2017-08-14T07:37:33.792Z,1015.99
2017-08-14T07:38:33.732Z,1015.98
2017-08-14T07:39:33.970Z,1015.95
2017-08-14T07:40:33.704Z,1015.92
2017-08-14T07:41:33.692Z,1015.91
2017-08-14T07:42:33.679Z,1015.88
2017-08-14T07:43:33.667Z,1015.91
2017-08-14T07:44:33.657Z,1015.91
2017-08-14T07:45:33.640Z,1015.91
2017-08-14T07:46:33.627Z,1015.89
2017-08-14T07:47:33.616Z,1015.9
2017-08-14T07:48:33.601Z,1015.94
2017-08-14T07:49:33.592Z,1015.91
2017-08-14T07:50:33.581Z,1015.92
2017-08-14T07:51:33.571Z,1015.83
2017-08-14T07:52:33.557Z,1015.86
2017-08-14T07:53:33.543Z,1015.81
2017-08-14T07:54:33.532Z,1015.82
2017-08-14T07:55:33.520Z,1015.79
2017-08-14T07:56:33.511Z,1015.81
2017-08-14T07:57:33.509Z,1015.8
2017-08-14T07:58:33.487Z,1015.83
2017-08-14T07:59:33.478Z,1015.76
2017-08-14T08:00:33.463Z,1015.8
2017-08-14T08:01:33.453Z,1015.78
2017-08-14T08:02:33.445Z,1015.74
2017-08-14T08:03:33.433Z,1015.8
2017-08-14T08:04:33.427Z,1015.77
2017-08-14T08:05:33.413Z,1015.8
2017-08-14T08:06:33.409Z,1015.77
2017-08-14T08:07:33.392Z,1015.8
2017-08-14T08:08:33.381Z,1015.79
2017-08-14T08:09:33.372Z,1015.76
2017-08-14T08:10:33.364Z,1015.82
2017-08-14T08:11:33.352Z,1015.77
2017-08-14T08:12:33.341Z,1015.77
2017-08-14T08:13:33.331Z,1015.82
2017-08-14T08:14:33.322Z,1015.82
2017-08-14T08:15:33.313Z,1015.78
2017-08-14T08:16:33.301Z,1015.8
2017-08-14T08:17:33.292Z,1015.73
2017-08-14T08:18:33.281Z,1015.74
2017-08-14T08:19:33.272Z,1015.76
2017-08-14T08:20:33.263Z,1015.78
2017-08-14T08:21:33.253Z,1015.76
2017-08-14T08:22:33.242Z,1015.75
2017-08-14T08:23:33.235Z,1015.73
2017-08-14T08:24:33.225Z,1015.75
2017-08-14T08:25:33.212Z,1015.74
2017-08-14T08:26:33.205Z,1015.79
2017-08-14T08:27:33.205Z,1015.77
2017-08-14T08:28:33.189Z,1015.79
2017-08-14T08:29:33.179Z,1015.8
2017-08-14T08:30:33.170Z,1015.75
2017-08-14T08:31:33.160Z,1015.75
2017-08-14T08:32:33.153Z,1015.76
2017-08-14T08:33:33.148Z,1015.79
2017-08-14T08:34:33.138Z,1015.72
2017-08-14T08:35:33.128Z,1015.71
2017-08-14T08:36:33.115Z,1015.62
2017-08-14T08:37:33.112Z,1015.64
2017-08-14T08:38:33.102Z,1015.63
2017-08-14T08:39:33.139Z,1015.62
2017-08-14T08:40:33.080Z,1015.65
2017-08-14T08:41:33.070Z,1015.62
2017-08-14T08:42:33.062Z,1015.55
2017-08-14T08:43:33.052Z,1015.57
2017-08-14T08:44:33.043Z,1015.57
2017-08-14T08:45:33.034Z,1015.56
2017-08-14T08:46:33.029Z,1015.5
2017-08-14T08:47:33.015Z,1015.58
2017-08-14T08:48:33.008Z,1015.57
2017-08-14T08:49:33.001Z,1015.57
2017-08-14T08:50:32.992Z,1015.6
2017-08-14T08:51:32.985Z,1015.58
2017-08-14T08:52:32.971Z,1015.59
2017-08-14T08:53:32.966Z,1015.54
2017-08-14T08:54:32.955Z,1015.54
2017-08-14T08:55:32.948Z,1015.51
2017-08-14T08:56:32.938Z,1015.5
2017-08-14T08:57:32.931Z,1015.48
2017-08-14T08:58:32.921Z,1015.49
2017-08-14T08:59:32.915Z,1015.56
2017-08-14T09:00:32.905Z,1015.46
2017-08-14T09:01:32.900Z,1015.51
2017-08-14T09:02:32.891Z,1015.49
2017-08-14T09:03:32.886Z,1015.49
2017-08-14T09:04:32.876Z,1015.5
2017-08-14T09:05:32.866Z,1015.46
2017-08-14T09:06:32.861Z,1015.42
2017-08-14T09:07:32.859Z,1015.43
2017-08-14T09:08:32.849Z,1015.45
2017-08-14T09:09:32.837Z,1015.4
2017-08-14T09:10:32.826Z,1015.43
2017-08-14T09:11:32.818Z,1015.44
2017-08-14T09:12:32.809Z,1015.48
2017-08-14T09:13:32.802Z,1015.46
2017-08-14T09:14:32.793Z,1015.42
2017-08-14T09:15:32.786Z,1015.41
2017-08-14T09:16:32.780Z,1015.39
2017-08-14T09:17:32.773Z,1015.41
2017-08-14T09:18:32.764Z,1015.41
2017-08-14T09:19:32.759Z,1015.39
2017-08-14T09:20:32.745Z,1015.41
2017-08-14T09:21:32.739Z,1015.34
2017-08-14T09:22:32.727Z,1015.42
2017-08-14T09:23:32.718Z,1015.41
2017-08-14T09:24:32.710Z,1015.43
2017-08-14T09:25:32.701Z,1015.43
2017-08-14T09:26:32.694Z,1015.36
2017-08-14T09:27:32.686Z,1015.42
2017-08-14T09:28:32.680Z,1015.42
2017-08-14T09:29:32.666Z,1015.44
2017-08-14T09:30:32.668Z,1015.4
2017-08-14T09:31:32.654Z,1015.36
2017-08-14T09:32:32.645Z,1015.34
2017-08-14T09:33:32.634Z,1015.33
2017-08-14T09:34:32.626Z,1015.38
2017-08-14T09:35:32.616Z,1015.37
2017-08-14T09:36:32.608Z,1015.34
2017-08-14T09:37:32.605Z,1015.31
2017-08-14T09:38:32.641Z,1015.31
2017-08-14T09:39:32.586Z,1015.29
2017-08-14T09:40:32.573Z,1015.28
2017-08-14T09:41:32.564Z,1015.31
2017-08-14T09:42:32.561Z,1015.31
2017-08-14T09:43:32.552Z,1015.3
2017-08-14T09:44:32.544Z,1015.31
2017-08-14T09:45:32.535Z,1015.3
2017-08-14T09:46:32.578Z,1015.3
2017-08-14T09:47:32.520Z,1015.27
2017-08-14T09:48:32.511Z,1015.25
2017-08-14T09:49:32.504Z,1015.34
2017-08-14T09:50:32.495Z,1015.31
2017-08-14T09:51:32.489Z,1015.23
2017-08-14T09:52:32.529Z,1015.22
2017-08-14T09:53:32.469Z,1015.25
2017-08-14T09:54:32.465Z,1015.15
2017-08-14T09:55:32.459Z,1015.24
2017-08-14T09:56:32.445Z,1015.21
2017-08-14T09:57:32.439Z,1015.16
2017-08-14T09:58:32.436Z,1015.15
2017-08-14T09:59:32.422Z,1015.16
2017-08-14T10:00:32.417Z,1015.24
2017-08-14T10:01:32.403Z,1015.21
2017-08-14T10:02:32.399Z,1015.2
2017-08-14T10:03:32.392Z,1015.21
2017-08-14T10:04:32.380Z,1015.18
2017-08-14T10:05:32.374Z,1015.18
2017-08-14T10:06:32.369Z,1015.12
2017-08-14T10:07:32.357Z,1015.12
2017-08-14T10:08:32.348Z,1015.12
2017-08-14T10:09:32.340Z,1015.09
2017-08-14T10:10:32.339Z,1015.14
2017-08-14T10:11:32.326Z,1015.15
2017-08-14T10:12:32.321Z,1015.11
2017-08-14T10:13:32.313Z,1015.13
2017-08-14T10:14:32.298Z,1015.15
2017-08-14T10:15:32.291Z,1015.13
2017-08-14T10:16:32.286Z,1015.11
2017-08-14T10:17:32.276Z,1015.18
2017-08-14T10:18:32.268Z,1015.12
2017-08-14T10:19:32.260Z,1015.04
2017-08-14T10:20:32.258Z,1015.08
2017-08-14T10:21:32.247Z,1015.05
2017-08-14T10:22:32.234Z,1015.02
2017-08-14T10:23:32.229Z,1015.06
2017-08-14T10:24:32.222Z,1015.04
2017-08-14T10:25:32.216Z,1015.03
2017-08-14T10:26:32.207Z,1015.02
2017-08-14T10:27:32.218Z,1015
2017-08-14T10:28:32.187Z,1015.02
2017-08-14T10:29:32.180Z,1015.03
2017-08-14T10:30:32.171Z,1015.07
2017-08-14T10:31:32.163Z,1015.03
2017-08-14T10:32:32.156Z,1014.96
2017-08-14T10:33:32.147Z,1015.02
2017-08-14T10:34:32.139Z,1015
2017-08-14T10:35:32.133Z,1015.05
2017-08-14T10:36:32.127Z,1014.96
2017-08-14T10:37:32.118Z,1014.96
2017-08-14T10:38:32.109Z,1014.97
2017-08-14T10:39:32.106Z,1014.99
2017-08-14T10:40:32.090Z,1014.99
2017-08-14T10:41:32.081Z,1014.95
2017-08-14T10:42:32.072Z,1014.95
2017-08-14T10:43:32.065Z,1014.93
2017-08-14T10:44:32.055Z,1014.99
2017-08-14T10:45:32.049Z,1014.98
2017-08-14T10:46:32.041Z,1014.94
2017-08-14T10:47:32.034Z,1015.07
2017-08-14T10:48:32.020Z,1014.92
2017-08-14T10:49:32.012Z,1014.89
2017-08-14T10:50:32.002Z,1014.86
2017-08-14T10:51:31.992Z,1014.87
2017-08-14T10:52:31.984Z,1014.82
2017-08-14T10:53:31.968Z,1014.94
2017-08-14T10:54:31.958Z,1014.86
2017-08-14T10:55:31.944Z,1014.87
2017-08-14T10:56:31.944Z,1014.85
2017-08-14T10:57:31.915Z,1014.78
2017-08-14T10:58:31.904Z,1014.8
2017-08-14T10:59:31.938Z,1014.82
2017-08-14T11:00:31.875Z,1014.75
2017-08-14T11:01:31.863Z,1014.77
2017-08-14T11:02:31.850Z,1014.69
2017-08-14T11:03:31.833Z,1014.66
2017-08-14T11:04:31.819Z,1014.69
2017-08-14T11:05:31.802Z,1014.65
2017-08-14T11:06:31.783Z,1014.74
2017-08-14T11:07:31.769Z,1014.75
2017-08-14T11:08:31.754Z,1014.69
2017-08-14T11:09:31.739Z,1014.75
2017-08-14T11:10:31.721Z,1014.6
2017-08-14T11:11:31.707Z,1014.64
2017-08-14T11:12:31.691Z,1014.62
2017-08-14T11:13:31.676Z,1014.61
2017-08-14T11:14:31.661Z,1014.58
2017-08-14T11:15:31.641Z,1014.69
2017-08-14T11:16:31.626Z,1014.67
2017-08-14T11:17:31.611Z,1014.58
2017-08-14T11:18:31.592Z,1014.56
2017-08-14T11:19:31.625Z,1014.59
2017-08-14T11:20:31.560Z,1014.56
2017-08-14T11:21:31.543Z,1014.56
2017-08-14T11:22:31.526Z,1014.55
2017-08-14T11:23:31.510Z,1014.62
2017-08-14T11:24:31.491Z,1014.62
2017-08-14T11:25:31.472Z,1014.56
2017-08-14T11:26:31.458Z,1014.57
2017-08-14T11:27:31.441Z,1014.53
2017-08-14T11:28:31.421Z,1014.47
2017-08-14T11:29:31.405Z,1014.45
2017-08-14T11:30:31.388Z,1014.49
2017-08-14T11:31:31.370Z,1014.42
2017-08-14T11:32:31.357Z,1014.43
2017-08-14T11:33:31.383Z,1014.39
2017-08-14T11:34:31.317Z,1014.38
2017-08-14T11:35:31.303Z,1014.41
2017-08-14T11:36:31.289Z,1014.4
2017-08-14T11:37:31.269Z,1014.38
2017-08-14T11:38:31.261Z,1014.35
2017-08-14T11:39:31.233Z,1014.34
2017-08-14T11:40:31.219Z,1014.32
2017-08-14T11:41:31.201Z,1014.33
2017-08-14T11:42:31.185Z,1014.34
2017-08-14T11:43:31.217Z,1014.4
2017-08-14T11:44:31.172Z,1014.32
2017-08-14T11:45:31.133Z,1014.31
2017-08-14T11:46:31.116Z,1014.32
2017-08-14T11:47:31.097Z,1014.3
2017-08-14T11:48:31.082Z,1014.29
2017-08-14T11:49:31.060Z,1014.28
2017-08-14T11:50:31.050Z,1014.24
2017-08-14T11:51:31.024Z,1014.2
2017-08-14T11:52:31.012Z,1014.25
2017-08-14T11:53:30.992Z,1014.27
2017-08-14T11:54:30.971Z,1014.21
2017-08-14T11:55:30.957Z,1014.2
2017-08-14T11:56:30.942Z,1014.23
2017-08-14T11:57:30.922Z,1014.21
2017-08-14T11:58:30.908Z,1014.19
2017-08-14T11:59:30.892Z,1014.21
2017-08-14T12:00:30.883Z,1014.17
2017-08-14T12:01:30.850Z,1014.19
2017-08-14T12:02:30.833Z,1014.12
2017-08-14T12:03:30.822Z,1014.1
2017-08-14T12:04:30.804Z,1014.1
2017-08-14T12:05:30.789Z,1014.05
2017-08-14T12:06:30.794Z,1014.04
2017-08-14T12:07:30.747Z,1014.09
2017-08-14T12:08:30.779Z,1014.02
2017-08-14T12:09:30.719Z,1014.08
2017-08-14T12:10:30.700Z,1014.05